Steeton, United Kingdom
Current Conditions -  °F | °C
As of 11:20 AM on Monday 22 Dec 2014 (Local Time) from EGNM Reporting Station
Light Rain Light Rain  
Wind Chill: 52°   Ceiling: 1200
Heat Index: 52°   Visibility: 6mi
Dew Point: 48°   Wind: 35mph
Humidity: 88%   Direction: 260°W
Pressure: 29.71"   Gusts: 53mph
Location:  53.88°N, 1.95°W
Report Text: EGNM 221120Z 26030G46KT 220V290 9999 -RA BKN012 11/09 Q1006
Loading
Personal Weather Stations






























Interactive Weather Map New forecast layout! Learn more

10-Day Weather Forecast

Advertisements
Track Severe Weather on mobile